sensor_id;sensor_type;location;lat;lon;timestamp;pressure;altitude;pressure_sealevel;temperature;humidity
59531;BME280;45349;48.692;8.186;2023-01-09T00:00:30;96987.94;;;8.18;100.00
59531;BME280;45349;48.692;8.186;2023-01-09T00:02:57;96987.31;;;8.16;100.00
59531;BME280;45349;48.692;8.186;2023-01-09T00:05:24;96983.09;;;8.15;100.00
59531;BME280;45349;48.692;8.186;2023-01-09T00:07:50;96995.44;;;8.12;100.00
59531;BME280;45349;48.692;8.186;2023-01-09T00:10:17;96995.59;;;8.11;100.00
59531;BME280;45349;48.692;8.186;2023-01-09T00:12:44;96981.34;;;8.07;100.00
59531;BME280;45349;48.692;8.186;2023-01-09T00:15:10;97001.16;;;8.08;100.00
59531;BME280;45349;48.692;8.186;2023-01-09T00:17:38;96979.91;;;8.04;100.00
59531;BME280;45349;48.692;8.186;2023-01-09T00:20:07;96984.19;;;7.97;100.00
59531;BME280;45349;48.692;8.186;2023-01-09T00:22:35;96987.50;;;7.91;100.00
59531;BME280;45349;48.692;8.186;2023-01-09T00:25:02;96980.06;;;7.88;100.00
59531;BME280;45349;48.692;8.186;2023-01-09T00:27:30;96969.31;;;7.91;100.00
59531;BME280;45349;48.692;8.186;2023-01-09T00:29:57;96958.47;;;7.87;100.00
59531;BME280;45349;48.692;8.186;2023-01-09T00:32:24;96959.31;;;7.79;100.00
59531;BME280;45349;48.692;8.186;2023-01-09T00:34:52;96956.91;;;7.78;100.00
59531;BME280;45349;48.692;8.186;2023-01-09T00:37:19;96948.22;;;7.71;100.00
59531;BME280;45349;48.692;8.186;2023-01-09T00:39:46;96965.22;;;7.73;100.00
59531;BME280;45349;48.692;8.186;2023-01-09T00:42:15;96967.31;;;7.78;100.00
59531;BME280;45349;48.692;8.186;2023-01-09T00:44:45;96951.09;;;7.76;100.00
59531;BME280;45349;48.692;8.186;2023-01-09T00:47:15;96964.06;;;7.76;99.98
59531;BME280;45349;48.692;8.186;2023-01-09T00:49:44;96941.97;;;7.80;99.36
59531;BME280;45349;48.692;8.186;2023-01-09T00:52:13;96945.19;;;7.82;97.73
59531;BME280;45349;48.692;8.186;2023-01-09T00:54:41;96939.66;;;7.85;98.00
59531;BME280;45349;48.692;8.186;2023-01-09T00:57:10;96957.84;;;7.85;98.65
59531;BME280;45349;48.692;8.186;2023-01-09T00:59:38;96938.31;;;7.89;97.58
59531;BME280;45349;48.692;8.186;2023-01-09T01:02:05;96947.00;;;7.96;96.54
59531;BME280;45349;48.692;8.186;2023-01-09T01:04:31;96950.59;;;7.95;96.56
59531;BME280;45349;48.692;8.186;2023-01-09T01:07:17;96968.44;;;7.98;97.81
59531;BME280;45349;48.692;8.186;2023-01-09T01:10:01;96955.06;;;8.02;94.30
59531;BME280;45349;48.692;8.186;2023-01-09T01:12:28;96957.88;;;8.00;97.91
59531;BME280;45349;48.692;8.186;2023-01-09T01:14:54;96960.75;;;8.05;94.76
59531;BME280;45349;48.692;8.186;2023-01-09T01:17:21;96977.47;;;8.03;97.32
59531;BME280;45349;48.692;8.186;2023-01-09T01:19:48;96971.31;;;8.04;96.78
59531;BME280;45349;48.692;8.186;2023-01-09T01:22:14;96951.78;;;8.08;95.49
59531;BME280;45349;48.692;8.186;2023-01-09T01:24:42;96971.94;;;8.06;96.58
59531;BME280;45349;48.692;8.186;2023-01-09T01:27:09;96978.75;;;8.07;95.87
59531;BME280;45349;48.692;8.186;2023-01-09T01:29:35;96989.97;;;8.07;97.06
59531;BME280;45349;48.692;8.186;2023-01-09T01:32:02;96982.81;;;8.09;97.98
59531;BME280;45349;48.692;8.186;2023-01-09T01:34:29;96991.94;;;8.05;98.35
59531;BME280;45349;48.692;8.186;2023-01-09T01:36:56;96999.25;;;8.02;100.00
59531;BME280;45349;48.692;8.186;2023-01-09T01:39:22;96993.63;;;7.98;100.00
59531;BME280;45349;48.692;8.186;2023-01-09T01:41:50;96983.91;;;7.92;100.00
59531;BME280;45349;48.692;8.186;2023-01-09T01:47:22;96982.19;;;7.84;100.00
59531;BME280;45349;48.692;8.186;2023-01-09T01:49:51;96980.25;;;7.86;100.00
59531;BME280;45349;48.692;8.186;2023-01-09T01:52:18;96977.34;;;7.81;100.00
59531;BME280;45349;48.692;8.186;2023-01-09T01:54:46;96976.72;;;7.79;100.00
59531;BME280;45349;48.692;8.186;2023-01-09T01:57:15;96968.94;;;7.79;100.00
59531;BME280;45349;48.692;8.186;2023-01-09T01:59:43;96987.56;;;7.82;100.00
59531;BME280;45349;48.692;8.186;2023-01-09T02:02:15;96986.91;;;7.80;100.00
59531;BME280;45349;48.692;8.186;2023-01-09T02:04:44;96975.38;;;7.83;100.00
59531;BME280;45349;48.692;8.186;2023-01-09T02:07:11;96969.56;;;7.81;100.00
59531;BME280;45349;48.692;8.186;2023-01-09T02:09:39;96971.03;;;7.75;100.00
59531;BME280;45349;48.692;8.186;2023-01-09T02:12:18;96986.19;;;7.72;100.00
59531;BME280;45349;48.692;8.186;2023-01-09T02:14:49;96995.31;;;7.67;100.00
59531;BME280;45349;48.692;8.186;2023-01-09T02:17:28;96998.88;;;7.66;100.00
59531;BME280;45349;48.692;8.186;2023-01-09T02:20:14;97010.69;;;7.69;100.00
59531;BME280;45349;48.692;8.186;2023-01-09T02:22:57;97012.31;;;7.70;100.00
59531;BME280;45349;48.692;8.186;2023-01-09T02:25:42;97005.97;;;7.73;100.00
59531;BME280;45349;48.692;8.186;2023-01-09T02:28:38;97013.09;;;7.79;100.00
59531;BME280;45349;48.692;8.186;2023-01-09T02:31:12;97017.81;;;7.75;100.00
59531;BME280;45349;48.692;8.186;2023-01-09T02:33:51;97007.31;;;7.68;100.00
59531;BME280;45349;48.692;8.186;2023-01-09T02:36:28;97015.38;;;7.74;100.00
59531;BME280;45349;48.692;8.186;2023-01-09T02:39:14;97030.78;;;7.75;100.00
59531;BME280;45349;48.692;8.186;2023-01-09T02:41:47;97048.50;;;7.72;100.00
59531;BME280;45349;48.692;8.186;2023-01-09T02:44:18;97059.41;;;7.67;100.00
59531;BME280;45349;48.692;8.186;2023-01-09T02:46:47;97075.13;;;7.74;100.00
59531;BME280;45349;48.692;8.186;2023-01-09T02:49:14;97084.00;;;7.79;100.00
59531;BME280;45349;48.692;8.186;2023-01-09T02:51:50;97132.97;;;7.59;100.00
59531;BME280;45349;48.692;8.186;2023-01-09T02:54:27;97140.88;;;7.18;100.00
59531;BME280;45349;48.692;8.186;2023-01-09T02:57:12;97150.50;;;6.76;100.00
59531;BME280;45349;48.692;8.186;2023-01-09T02:59:54;97145.97;;;6.61;100.00
59531;BME280;45349;48.692;8.186;2023-01-09T03:02:33;97166.06;;;6.43;100.00
59531;BME280;45349;48.692;8.186;2023-01-09T03:05:06;97158.13;;;6.36;100.00
59531;BME280;45349;48.692;8.186;2023-01-09T03:07:41;97167.34;;;6.30;100.00
59531;BME280;45349;48.692;8.186;2023-01-09T03:10:16;97179.97;;;6.25;100.00
59531;BME280;45349;48.692;8.186;2023-01-09T03:12:45;97186.28;;;6.23;100.00
59531;BME280;45349;48.692;8.186;2023-01-09T03:15:14;97194.69;;;6.25;100.00
59531;BME280;45349;48.692;8.186;2023-01-09T03:17:47;97202.00;;;6.21;100.00
59531;BME280;45349;48.692;8.186;2023-01-09T03:20:18;97210.56;;;6.22;100.00
59531;BME280;45349;48.692;8.186;2023-01-09T03:22:52;97214.44;;;6.17;100.00
59531;BME280;45349;48.692;8.186;2023-01-09T03:25:19;97223.19;;;6.16;100.00
59531;BME280;45349;48.692;8.186;2023-01-09T03:27:46;97231.91;;;6.15;100.00
59531;BME280;45349;48.692;8.186;2023-01-09T03:30:13;97240.00;;;6.12;100.00
59531;BME280;45349;48.692;8.186;2023-01-09T03:32:39;97242.75;;;6.11;100.00
59531;BME280;45349;48.692;8.186;2023-01-09T03:35:08;97251.97;;;6.05;100.00
59531;BME280;45349;48.692;8.186;2023-01-09T03:37:34;97255.38;;;6.05;100.00
59531;BME280;45349;48.692;8.186;2023-01-09T03:40:01;97249.53;;;6.03;100.00
59531;BME280;45349;48.692;8.186;2023-01-09T03:42:28;97261.00;;;6.01;100.00
59531;BME280;45349;48.692;8.186;2023-01-09T03:44:54;97257.91;;;5.97;100.00
59531;BME280;45349;48.692;8.186;2023-01-09T03:47:21;97261.47;;;5.96;100.00
59531;BME280;45349;48.692;8.186;2023-01-09T03:49:47;97270.84;;;5.97;100.00
59531;BME280;45349;48.692;8.186;2023-01-09T03:52:15;97272.78;;;5.95;100.00
59531;BME280;45349;48.692;8.186;2023-01-09T03:54:42;97289.13;;;5.96;100.00
59531;BME280;45349;48.692;8.186;2023-01-09T03:57:08;97277.00;;;5.96;100.00
59531;BME280;45349;48.692;8.186;2023-01-09T03:59:35;97283.28;;;5.94;100.00
59531;BME280;45349;48.692;8.186;2023-01-09T04:04:43;97287.66;;;5.93;100.00
59531;BME280;45349;48.692;8.186;2023-01-09T04:07:09;97303.88;;;5.95;100.00
59531;BME280;45349;48.692;8.186;2023-01-09T04:09:37;97304.81;;;5.94;100.00
59531;BME280;45349;48.692;8.186;2023-01-09T04:12:04;97314.34;;;5.94;100.00
59531;BME280;45349;48.692;8.186;2023-01-09T04:14:31;97304.31;;;5.90;100.00
59531;BME280;45349;48.692;8.186;2023-01-09T04:16:58;97314.97;;;5.87;100.00
59531;BME280;45349;48.692;8.186;2023-01-09T04:19:24;97300.41;;;5.86;100.00
59531;BME280;45349;48.692;8.186;2023-01-09T04:21:51;97310.94;;;5.85;100.00
59531;BME280;45349;48.692;8.186;2023-01-09T04:24:18;97329.66;;;5.79;100.00
59531;BME280;45349;48.692;8.186;2023-01-09T04:26:46;97330.78;;;5.76;100.00
59531;BME280;45349;48.692;8.186;2023-01-09T04:29:12;97341.75;;;5.70;100.00
59531;BME280;45349;48.692;8.186;2023-01-09T04:31:39;97353.38;;;5.66;100.00
59531;BME280;45349;48.692;8.186;2023-01-09T04:34:05;97353.50;;;5.64;100.00
59531;BME280;45349;48.692;8.186;2023-01-09T04:36:32;97352.25;;;5.68;100.00
59531;BME280;45349;48.692;8.186;2023-01-09T04:39:00;97372.66;;;5.71;100.00
59531;BME280;45349;48.692;8.186;2023-01-09T04:41:27;97368.66;;;5.77;96.83
59531;BME280;45349;48.692;8.186;2023-01-09T04:44:12;97369.75;;;5.74;99.02
59531;BME280;45349;48.692;8.186;2023-01-09T04:46:39;97369.09;;;5.72;98.82
59531;BME280;45349;48.692;8.186;2023-01-09T04:49:05;97363.94;;;5.72;97.11
59531;BME280;45349;48.692;8.186;2023-01-09T04:51:32;97375.41;;;5.70;99.30
59531;BME280;45349;48.692;8.186;2023-01-09T04:53:58;97382.38;;;5.51;99.19
59531;BME280;45349;48.692;8.186;2023-01-09T04:56:25;97381.13;;;5.37;99.25
59531;BME280;45349;48.692;8.186;2023-01-09T04:58:51;97377.16;;;5.25;100.00
59531;BME280;45349;48.692;8.186;2023-01-09T05:01:19;97382.63;;;5.22;100.00
59531;BME280;45349;48.692;8.186;2023-01-09T05:03:46;97379.66;;;5.16;100.00
59531;BME280;45349;48.692;8.186;2023-01-09T05:06:13;97371.22;;;5.14;100.00
59531;BME280;45349;48.692;8.186;2023-01-09T05:08:39;97380.63;;;5.15;100.00
59531;BME280;45349;48.692;8.186;2023-01-09T05:11:06;97388.09;;;5.19;100.00
59531;BME280;45349;48.692;8.186;2023-01-09T05:13:33;97401.09;;;5.27;99.92
59531;BME280;45349;48.692;8.186;2023-01-09T05:16:00;97395.84;;;5.37;99.08
59531;BME280;45349;48.692;8.186;2023-01-09T05:18:27;97391.34;;;5.39;98.23
59531;BME280;45349;48.692;8.186;2023-01-09T05:20:54;97375.81;;;5.39;98.31
59531;BME280;45349;48.692;8.186;2023-01-09T05:23:21;97366.06;;;5.32;96.65
59531;BME280;45349;48.692;8.186;2023-01-09T05:25:47;97373.91;;;5.23;99.08
59531;BME280;45349;48.692;8.186;2023-01-09T05:28:14;97382.91;;;5.19;98.29
59531;BME280;45349;48.692;8.186;2023-01-09T05:30:40;97389.63;;;5.11;96.98
59531;BME280;45349;48.692;8.186;2023-01-09T05:33:07;97394.66;;;5.31;95.11
59531;BME280;45349;48.692;8.186;2023-01-09T05:35:35;97389.03;;;5.36;96.42
59531;BME280;45349;48.692;8.186;2023-01-09T05:38:01;97389.47;;;5.31;95.93
59531;BME280;45349;48.692;8.186;2023-01-09T05:40:28;97403.69;;;5.45;93.33
59531;BME280;45349;48.692;8.186;2023-01-09T05:42:54;97405.69;;;5.51;94.82
59531;BME280;45349;48.692;8.186;2023-01-09T05:45:21;97394.13;;;5.64;91.32
59531;BME280;45349;48.692;8.186;2023-01-09T05:47:48;97376.69;;;5.66;92.85
59531;BME280;45349;48.692;8.186;2023-01-09T05:50:14;97404.56;;;5.72;91.09
59531;BME280;45349;48.692;8.186;2023-01-09T05:52:42;97412.16;;;5.73;92.33
59531;BME280;45349;48.692;8.186;2023-01-09T05:55:10;97400.53;;;5.78;90.29
59531;BME280;45349;48.692;8.186;2023-01-09T05:57:37;97418.53;;;5.79;88.97
59531;BME280;45349;48.692;8.186;2023-01-09T06:00:05;97424.38;;;5.81;90.08
59531;BME280;45349;48.692;8.186;2023-01-09T06:02:32;97428.44;;;5.84;89.26
59531;BME280;45349;48.692;8.186;2023-01-09T06:04:58;97412.59;;;5.87;87.38
59531;BME280;45349;48.692;8.186;2023-01-09T06:07:25;97425.59;;;5.95;86.64
59531;BME280;45349;48.692;8.186;2023-01-09T06:09:53;97418.94;;;5.93;85.49
59531;BME280;45349;48.692;8.186;2023-01-09T06:12:19;97422.78;;;5.88;88.15
59531;BME280;45349;48.692;8.186;2023-01-09T06:14:46;97428.13;;;5.87;86.86
59531;BME280;45349;48.692;8.186;2023-01-09T06:17:12;97428.63;;;5.90;86.69
59531;BME280;45349;48.692;8.186;2023-01-09T06:19:39;97424.09;;;5.93;83.55
59531;BME280;45349;48.692;8.186;2023-01-09T06:22:05;97422.66;;;5.90;86.36
59531;BME280;45349;48.692;8.186;2023-01-09T06:24:32;97433.00;;;5.90;83.96
59531;BME280;45349;48.692;8.186;2023-01-09T06:27:00;97445.34;;;5.96;82.69
59531;BME280;45349;48.692;8.186;2023-01-09T06:29:26;97441.13;;;5.95;84.33
59531;BME280;45349;48.692;8.186;2023-01-09T06:31:53;97445.34;;;5.96;84.00
59531;BME280;45349;48.692;8.186;2023-01-09T06:34:20;97429.94;;;5.95;85.18
59531;BME280;45349;48.692;8.186;2023-01-09T06:36:46;97437.72;;;5.95;84.37
59531;BME280;45349;48.692;8.186;2023-01-09T06:39:13;97438.25;;;5.98;82.80
59531;BME280;45349;48.692;8.186;2023-01-09T06:41:39;97441.94;;;5.96;83.38
59531;BME280;45349;48.692;8.186;2023-01-09T06:44:07;97440.84;;;5.98;81.87
59531;BME280;45349;48.692;8.186;2023-01-09T06:46:34;97445.84;;;6.00;81.50
59531;BME280;45349;48.692;8.186;2023-01-09T06:49:00;97437.41;;;5.98;83.11
59531;BME280;45349;48.692;8.186;2023-01-09T06:51:27;97439.59;;;6.02;83.09
59531;BME280;45349;48.692;8.186;2023-01-09T06:53:53;97440.56;;;6.01;83.87
59531;BME280;45349;48.692;8.186;2023-01-09T06:56:20;97440.00;;;5.98;82.08
59531;BME280;45349;48.692;8.186;2023-01-09T06:58:47;97439.22;;;5.97;82.58
59531;BME280;45349;48.692;8.186;2023-01-09T07:01:15;97440.00;;;5.98;83.42
59531;BME280;45349;48.692;8.186;2023-01-09T07:03:41;97429.50;;;5.99;83.41
59531;BME280;45349;48.692;8.186;2023-01-09T07:06:08;97428.13;;;6.05;82.49
59531;BME280;45349;48.692;8.186;2023-01-09T07:08:34;97429.59;;;6.08;80.25
59531;BME280;45349;48.692;8.186;2023-01-09T07:11:01;97411.59;;;6.06;82.63
59531;BME280;45349;48.692;8.186;2023-01-09T07:13:28;97415.03;;;6.07;81.79
59531;BME280;45349;48.692;8.186;2023-01-09T07:15:54;97414.06;;;6.08;81.50
59531;BME280;45349;48.692;8.186;2023-01-09T07:18:22;97428.47;;;6.10;81.72
59531;BME280;45349;48.692;8.186;2023-01-09T07:20:49;97436.91;;;6.12;81.31
59531;BME280;45349;48.692;8.186;2023-01-09T07:23:15;97440.47;;;6.11;81.40
59531;BME280;45349;48.692;8.186;2023-01-09T07:25:43;97431.72;;;6.12;81.62
59531;BME280;45349;48.692;8.186;2023-01-09T07:28:10;97441.78;;;6.15;81.07
59531;BME280;45349;48.692;8.186;2023-01-09T07:30:37;97432.75;;;6.19;81.15
59531;BME280;45349;48.692;8.186;2023-01-09T07:33:03;97453.69;;;6.26;78.30
59531;BME280;45349;48.692;8.186;2023-01-09T07:35:31;97444.78;;;6.29;78.98
59531;BME280;45349;48.692;8.186;2023-01-09T07:37:58;97442.75;;;6.41;80.76
59531;BME280;45349;48.692;8.186;2023-01-09T07:40:24;97442.13;;;6.47;77.90
59531;BME280;45349;48.692;8.186;2023-01-09T07:42:51;97447.97;;;6.49;78.91
59531;BME280;45349;48.692;8.186;2023-01-09T07:45:18;97447.34;;;6.55;77.63
59531;BME280;45349;48.692;8.186;2023-01-09T07:47:44;97447.53;;;6.54;78.20
59531;BME280;45349;48.692;8.186;2023-01-09T07:50:11;97458.56;;;6.56;78.37
59531;BME280;45349;48.692;8.186;2023-01-09T07:52:39;97442.84;;;6.57;78.35
59531;BME280;45349;48.692;8.186;2023-01-09T07:55:07;97458.69;;;6.54;78.57
59531;BME280;45349;48.692;8.186;2023-01-09T07:57:33;97459.53;;;6.55;78.73
59531;BME280;45349;48.692;8.186;2023-01-09T08:00:00;97448.19;;;6.56;78.16
59531;BME280;45349;48.692;8.186;2023-01-09T08:02:36;97447.22;;;6.57;77.83
59531;BME280;45349;48.692;8.186;2023-01-09T08:05:03;97462.25;;;6.53;78.87
59531;BME280;45349;48.692;8.186;2023-01-09T08:07:30;97452.19;;;6.50;78.17
59531;BME280;45349;48.692;8.186;2023-01-09T08:09:58;97460.28;;;6.47;78.94
59531;BME280;45349;48.692;8.186;2023-01-09T08:12:25;97465.75;;;6.44;79.26
59531;BME280;45349;48.692;8.186;2023-01-09T08:14:51;97464.78;;;6.45;78.77
59531;BME280;45349;48.692;8.186;2023-01-09T08:17:18;97462.13;;;6.55;78.35
59531;BME280;45349;48.692;8.186;2023-01-09T08:19:44;97455.34;;;6.62;78.08
59531;BME280;45349;48.692;8.186;2023-01-09T08:22:11;97464.22;;;6.59;80.26
59531;BME280;45349;48.692;8.186;2023-01-09T08:24:37;97472.31;;;6.56;77.99
59531;BME280;45349;48.692;8.186;2023-01-09T08:27:05;97457.91;;;6.54;78.20
59531;BME280;45349;48.692;8.186;2023-01-09T08:29:32;97477.81;;;6.53;77.82
59531;BME280;45349;48.692;8.186;2023-01-09T08:31:58;97460.00;;;6.58;79.08
59531;BME280;45349;48.692;8.186;2023-01-09T08:34:25;97468.81;;;6.65;78.98
59531;BME280;45349;48.692;8.186;2023-01-09T08:36:51;97470.63;;;6.73;78.24
59531;BME280;45349;48.692;8.186;2023-01-09T08:39:18;97469.53;;;6.84;76.25
59531;BME280;45349;48.692;8.186;2023-01-09T08:41:45;97473.13;;;6.91;77.05
59531;BME280;45349;48.692;8.186;2023-01-09T08:44:30;97465.22;;;7.01;75.26
59531;BME280;45349;48.692;8.186;2023-01-09T08:47:17;97472.69;;;7.04;76.76
59531;BME280;45349;48.692;8.186;2023-01-09T08:49:45;97465.41;;;7.08;76.08
59531;BME280;45349;48.692;8.186;2023-01-09T08:52:12;97477.28;;;7.19;75.83
59531;BME280;45349;48.692;8.186;2023-01-09T08:54:39;97488.50;;;7.19;76.77
59531;BME280;45349;48.692;8.186;2023-01-09T08:57:06;97483.47;;;7.26;75.17
59531;BME280;45349;48.692;8.186;2023-01-09T08:59:34;97474.38;;;7.22;74.32
59531;BME280;45349;48.692;8.186;2023-01-09T09:02:01;97475.38;;;7.29;73.56
59531;BME280;45349;48.692;8.186;2023-01-09T09:04:27;97477.34;;;7.35;74.36
59531;BME280;45349;48.692;8.186;2023-01-09T09:06:54;97462.06;;;7.32;73.76
59531;BME280;45349;48.692;8.186;2023-01-09T09:09:21;97466.66;;;7.47;73.14
59531;BME280;45349;48.692;8.186;2023-01-09T09:11:47;97463.41;;;7.45;73.42
59531;BME280;45349;48.692;8.186;2023-01-09T09:14:14;97474.44;;;7.38;73.43
59531;BME280;45349;48.692;8.186;2023-01-09T09:17:00;97465.81;;;7.46;72.87
59531;BME280;45349;48.692;8.186;2023-01-09T09:19:27;97473.44;;;7.39;73.20
59531;BME280;45349;48.692;8.186;2023-01-09T09:21:53;97467.91;;;7.34;72.68
59531;BME280;45349;48.692;8.186;2023-01-09T09:24:20;97488.22;;;7.39;73.56
59531;BME280;45349;48.692;8.186;2023-01-09T09:26:46;97477.84;;;7.47;72.80
59531;BME280;45349;48.692;8.186;2023-01-09T09:29:13;97480.13;;;7.59;72.11
59531;BME280;45349;48.692;8.186;2023-01-09T09:31:40;97480.44;;;7.56;73.10
59531;BME280;45349;48.692;8.186;2023-01-09T09:34:08;97481.44;;;7.71;72.82
59531;BME280;45349;48.692;8.186;2023-01-09T09:36:35;97492.16;;;7.60;71.82
59531;BME280;45349;48.692;8.186;2023-01-09T09:39:01;97493.47;;;7.72;72.13
59531;BME280;45349;48.692;8.186;2023-01-09T09:41:38;97476.75;;;7.66;71.87
59531;BME280;45349;48.692;8.186;2023-01-09T09:44:39;97491.50;;;7.66;71.17
59531;BME280;45349;48.692;8.186;2023-01-09T09:47:20;97486.66;;;7.71;72.69
59531;BME280;45349;48.692;8.186;2023-01-09T09:50:01;97490.56;;;7.83;71.20
59531;BME280;45349;48.692;8.186;2023-01-09T09:52:38;97497.84;;;7.72;72.45
59531;BME280;45349;48.692;8.186;2023-01-09T09:55:15;97492.19;;;7.85;70.93
59531;BME280;45349;48.692;8.186;2023-01-09T09:57:42;97490.38;;;7.68;71.01
59531;BME280;45349;48.692;8.186;2023-01-09T10:00:15;97502.19;;;7.54;72.19
59531;BME280;45349;48.692;8.186;2023-01-09T10:02:46;97488.41;;;7.54;74.00
59531;BME280;45349;48.692;8.186;2023-01-09T10:05:19;97482.25;;;7.63;71.58
59531;BME280;45349;48.692;8.186;2023-01-09T10:07:50;97485.63;;;7.47;72.31
59531;BME280;45349;48.692;8.186;2023-01-09T10:10:23;97480.44;;;7.47;71.84
59531;BME280;45349;48.692;8.186;2023-01-09T10:12:53;97486.59;;;7.46;73.23
59531;BME280;45349;48.692;8.186;2023-01-09T10:15:29;97489.38;;;7.45;72.81
59531;BME280;45349;48.692;8.186;2023-01-09T10:18:07;97485.31;;;7.50;71.96
59531;BME280;45349;48.692;8.186;2023-01-09T10:20:47;97483.25;;;7.62;72.38
59531;BME280;45349;48.692;8.186;2023-01-09T10:23:26;97492.69;;;7.80;72.96
59531;BME280;45349;48.692;8.186;2023-01-09T10:25:58;97483.59;;;7.84;73.43
59531;BME280;45349;48.692;8.186;2023-01-09T10:28:38;97483.59;;;7.84;71.52
59531;BME280;45349;48.692;8.186;2023-01-09T10:31:12;97474.28;;;7.65;72.22
59531;BME280;45349;48.692;8.186;2023-01-09T10:33:52;97475.28;;;7.64;73.55
59531;BME280;45349;48.692;8.186;2023-01-09T10:36:39;97482.56;;;7.52;74.63
59531;BME280;45349;48.692;8.186;2023-01-09T10:39:14;97482.38;;;7.45;74.40
59531;BME280;45349;48.692;8.186;2023-01-09T10:41:50;97463.56;;;7.35;77.49
59531;BME280;45349;48.692;8.186;2023-01-09T10:44:23;97462.41;;;7.29;76.78
59531;BME280;45349;48.692;8.186;2023-01-09T10:46:53;97463.38;;;7.36;77.77
59531;BME280;45349;48.692;8.186;2023-01-09T10:49:22;97477.81;;;7.31;80.14
59531;BME280;45349;48.692;8.186;2023-01-09T10:51:51;97469.34;;;7.20;80.07
59531;BME280;45349;48.692;8.186;2023-01-09T10:54:21;97472.41;;;7.16;81.64
59531;BME280;45349;48.692;8.186;2023-01-09T10:56:53;97472.25;;;7.17;82.54
59531;BME280;45349;48.692;8.186;2023-01-09T10:59:21;97479.41;;;7.23;86.19
59531;BME280;45349;48.692;8.186;2023-01-09T11:01:47;97495.28;;;7.12;85.36
59531;BME280;45349;48.692;8.186;2023-01-09T11:04:19;97475.16;;;7.06;85.17
59531;BME280;45349;48.692;8.186;2023-01-09T11:06:54;97479.47;;;6.89;87.38
59531;BME280;45349;48.692;8.186;2023-01-09T11:09:22;97477.31;;;6.84;87.26
59531;BME280;45349;48.692;8.186;2023-01-09T11:11:48;97474.28;;;6.89;87.50
59531;BME280;45349;48.692;8.186;2023-01-09T11:14:17;97487.56;;;6.86;87.92
59531;BME280;45349;48.692;8.186;2023-01-09T11:16:51;97490.78;;;6.79;89.33
59531;BME280;45349;48.692;8.186;2023-01-09T11:19:18;97493.50;;;6.78;89.78
59531;BME280;45349;48.692;8.186;2023-01-09T11:21:45;97495.56;;;6.66;91.86
59531;BME280;45349;48.692;8.186;2023-01-09T11:24:32;97488.59;;;6.67;90.96
59531;BME280;45349;48.692;8.186;2023-01-09T11:27:22;97503.94;;;6.60;91.51
59531;BME280;45349;48.692;8.186;2023-01-09T11:30:15;97500.88;;;6.64;92.67
59531;BME280;45349;48.692;8.186;2023-01-09T11:32:44;97503.78;;;6.61;93.37
59531;BME280;45349;48.692;8.186;2023-01-09T11:35:18;97504.41;;;6.55;93.72
59531;BME280;45349;48.692;8.186;2023-01-09T11:37:48;97493.22;;;6.55;92.50
59531;BME280;45349;48.692;8.186;2023-01-09T11:40:19;97491.44;;;6.55;92.36
59531;BME280;45349;48.692;8.186;2023-01-09T11:43:14;97501.09;;;6.71;90.88
59531;BME280;45349;48.692;8.186;2023-01-09T11:45:48;97490.25;;;6.76;93.42
59531;BME280;45349;48.692;8.186;2023-01-09T11:48:37;97511.34;;;6.81;92.33
59531;BME280;45349;48.692;8.186;2023-01-09T11:51:15;97517.00;;;6.76;93.13
59531;BME280;45349;48.692;8.186;2023-01-09T11:53:52;97511.97;;;6.75;92.31
59531;BME280;45349;48.692;8.186;2023-01-09T11:56:22;97511.66;;;6.78;93.86
59531;BME280;45349;48.692;8.186;2023-01-09T11:58:49;97503.53;;;6.73;93.90
59531;BME280;45349;48.692;8.186;2023-01-09T12:01:50;97501.91;;;6.72;94.29
59531;BME280;45349;48.692;8.186;2023-01-09T12:04:23;97485.19;;;6.66;94.24
59531;BME280;45349;48.692;8.186;2023-01-09T12:07:05;97487.53;;;6.77;94.03
59531;BME280;45349;48.692;8.186;2023-01-09T12:09:43;97493.19;;;6.81;92.41
59531;BME280;45349;48.692;8.186;2023-01-09T12:12:22;97491.06;;;6.76;93.17
59531;BME280;45349;48.692;8.186;2023-01-09T12:15:02;97489.81;;;6.81;92.50
59531;BME280;45349;48.692;8.186;2023-01-09T12:18:01;97483.34;;;6.85;91.96
59531;BME280;45349;48.692;8.186;2023-01-09T12:20:41;97491.91;;;6.85;93.37
59531;BME280;45349;48.692;8.186;2023-01-09T12:23:25;97488.84;;;6.82;93.29
59531;BME280;45349;48.692;8.186;2023-01-09T12:26:06;97489.84;;;6.89;91.27
59531;BME280;45349;48.692;8.186;2023-01-09T12:28:51;97490.47;;;6.91;91.13
59531;BME280;45349;48.692;8.186;2023-01-09T12:31:31;97496.50;;;6.91;92.13
59531;BME280;45349;48.692;8.186;2023-01-09T12:34:14;97503.25;;;6.84;92.20
59531;BME280;45349;48.692;8.186;2023-01-09T12:36:52;97506.91;;;6.65;93.72
59531;BME280;45349;48.692;8.186;2023-01-09T12:39:29;97512.22;;;6.63;95.52
59531;BME280;45349;48.692;8.186;2023-01-09T12:42:08;97523.31;;;6.47;96.33
59531;BME280;45349;48.692;8.186;2023-01-09T12:44:48;97535.56;;;6.63;96.00
59531;BME280;45349;48.692;8.186;2023-01-09T12:47:35;97543.03;;;6.67;96.51
59531;BME280;45349;48.692;8.186;2023-01-09T12:50:17;97549.72;;;6.69;96.00
59531;BME280;45349;48.692;8.186;2023-01-09T12:53:01;97550.94;;;6.57;95.89
59531;BME280;45349;48.692;8.186;2023-01-09T12:55:32;97546.50;;;6.75;95.69
59531;BME280;45349;48.692;8.186;2023-01-09T12:58:06;97548.53;;;6.63;95.73
59531;BME280;45349;48.692;8.186;2023-01-09T13:00:39;97561.25;;;6.75;95.66
59531;BME280;45349;48.692;8.186;2023-01-09T13:03:13;97542.97;;;6.58;94.51
59531;BME280;45349;48.692;8.186;2023-01-09T13:05:44;97543.19;;;6.65;93.67
59531;BME280;45349;48.692;8.186;2023-01-09T13:08:15;97541.75;;;6.44;95.76
59531;BME280;45349;48.692;8.186;2023-01-09T13:10:45;97559.44;;;6.49;96.06
59531;BME280;45349;48.692;8.186;2023-01-09T13:13:17;97558.91;;;6.63;95.38
59531;BME280;45349;48.692;8.186;2023-01-09T13:15:46;97560.38;;;6.66;95.02
59531;BME280;45349;48.692;8.186;2023-01-09T13:18:19;97560.03;;;6.61;93.75
59531;BME280;45349;48.692;8.186;2023-01-09T13:20:49;97569.69;;;6.77;95.19
59531;BME280;45349;48.692;8.186;2023-01-09T13:23:23;97554.69;;;6.89;95.69
59531;BME280;45349;48.692;8.186;2023-01-09T13:25:52;97567.63;;;6.81;93.88
59531;BME280;45349;48.692;8.186;2023-01-09T13:28:24;97569.91;;;6.84;90.92
59531;BME280;45349;48.692;8.186;2023-01-09T13:33:42;97574.69;;;6.70;92.18